Time;durP1;ratioP1;P1;durP2;ratioP2;P2;SDS_P1;SDS_P2;PMS_P1;PMS_P2;Temp;Humidity;BMP_temperature;BMP_pressure;BME280_temperature;BME280_humidity;BME280_pressure;Samples;Min_cycle;Max_cycle;Signal;HPM_P1;HPM_P2
2021/10/05 00:02:20;;;;;;;5.00;2.25;;;19.10;59.00;;;;;;5009763;28;20256;-49
2021/10/05 00:04:51;;;;;;;6.63;2.45;;;19.10;59.00;;;;;;5005142;28;20256;-54
2021/10/05 00:07:21;;;;;;;6.68;2.50;;;19.10;58.90;;;;;;5010558;28;20235;-55
2021/10/05 00:09:53;;;;;;;7.53;2.42;;;19.10;59.00;;;;;;5009305;28;20232;-53
2021/10/05 00:12:24;;;;;;;5.95;2.63;;;19.20;59.10;;;;;;5013568;28;20250;-51
2021/10/05 00:14:55;;;;;;;7.55;2.67;;;19.20;59.00;;;;;;5013931;28;20228;-43
2021/10/05 00:17:25;;;;;;;7.60;2.60;;;19.20;59.00;;;;;;5009770;28;20579;-47
2021/10/05 00:19:56;;;;;;;7.55;2.70;;;19.20;58.90;;;;;;5013407;28;20647;-51
2021/10/05 00:22:27;;;;;;;6.55;2.17;;;19.20;58.90;;;;;;5012605;28;20734;-54
2021/10/05 00:24:59;;;;;;;6.15;2.20;;;19.20;58.80;;;;;;5013307;28;20232;-55
2021/10/05 00:27:29;;;;;;;5.68;2.20;;;19.20;58.80;;;;;;5010567;28;20295;-42
2021/10/05 00:30:06;;;;;;;5.75;2.30;;;19.30;58.90;;;;;;4993671;28;20202;-53
2021/10/05 00:32:37;;;;;;;4.68;1.95;;;19.30;58.70;;;;;;4993958;28;20239;-53
2021/10/05 00:35:08;;;;;;;7.38;2.63;;;19.30;58.80;;;;;;4993741;28;20239;-50
2021/10/05 00:37:38;;;;;;;7.72;2.30;;;19.30;58.80;;;;;;4993485;28;20240;-57
2021/10/05 00:40:12;;;;;;;7.88;2.72;;;19.30;58.70;;;;;;5011430;28;20240;-49
2021/10/05 00:42:43;;;;;;;5.53;2.53;;;19.30;58.70;;;;;;5012731;28;20231;-54
2021/10/05 00:45:14;;;;;;;9.43;2.35;;;19.30;58.70;;;;;;5012487;28;20696;-46
2021/10/05 00:47:44;;;;;;;5.00;2.20;;;19.30;58.70;;;;;;5013431;28;20240;-51
2021/10/05 00:50:16;;;;;;;7.53;2.50;;;19.40;58.80;;;;;;5010123;28;20285;-53
2021/10/05 00:52:47;;;;;;;7.43;2.10;;;19.40;58.80;;;;;;5010459;28;20283;-51
2021/10/05 00:55:20;;;;;;;8.93;2.40;;;19.40;58.70;;;;;;5009533;28;20201;-52
2021/10/05 00:57:50;;;;;;;6.95;2.45;;;19.40;58.70;;;;;;5007420;28;20232;-45
2021/10/05 01:00:21;;;;;;;6.57;2.60;;;19.40;58.70;;;;;;5010118;28;20254;-50
2021/10/05 01:02:51;;;;;;;7.03;2.25;;;19.40;58.80;;;;;;5012126;28;20326;-54
2021/10/05 01:05:22;;;;;;;6.78;2.65;;;19.50;58.90;;;;;;5012083;28;20676;-49
2021/10/05 01:07:52;;;;;;;6.47;2.33;;;19.40;58.70;;;;;;5010032;28;20640;-51
2021/10/05 01:10:24;;;;;;;8.07;2.75;;;19.40;58.90;;;;;;5012677;28;20283;-53
2021/10/05 01:12:55;;;;;;;5.65;2.90;;;19.50;58.90;;;;;;5010961;28;20232;-52
2021/10/05 01:15:27;;;;;;;10.20;2.50;;;19.50;59.00;;;;;;5012747;28;20236;-48
2021/10/05 01:17:57;;;;;;;6.10;2.30;;;19.50;58.90;;;;;;5009614;28;20627;-47
2021/10/05 01:20:28;;;;;;;8.20;2.67;;;19.50;58.80;;;;;;5011949;28;20650;-43
2021/10/05 01:23:00;;;;;;;5.18;2.35;;;19.50;58.80;;;;;;5012043;28;20734;-51
2021/10/05 01:25:31;;;;;;;5.63;2.30;;;19.50;58.80;;;;;;5011501;28;20764;-48
2021/10/05 01:28:02;;;;;;;5.78;2.38;;;19.60;58.80;;;;;;5008185;28;20276;-52
2021/10/05 01:30:32;;;;;;;7.18;2.72;;;19.60;58.80;;;;;;5009791;28;20320;-48
2021/10/05 01:33:02;;;;;;;8.45;2.40;;;19.60;58.90;;;;;;5011952;28;20255;-48
2021/10/05 01:35:33;;;;;;;5.78;2.90;;;19.60;58.80;;;;;;5011102;28;20515;-47
2021/10/05 01:38:05;;;;;;;5.47;2.42;;;19.60;58.90;;;;;;5010739;28;20289;-50
2021/10/05 01:40:36;;;;;;;4.28;2.22;;;19.70;59.10;;;;;;5007529;28;20248;-54
2021/10/05 01:43:06;;;;;;;6.60;2.58;;;19.70;59.20;;;;;;5012380;28;20232;-48
2021/10/05 01:45:37;;;;;;;7.22;2.63;;;19.70;59.10;;;;;;5011474;28;20319;-48
2021/10/05 01:48:08;;;;;;;6.47;2.53;;;19.80;59.20;;;;;;5010709;28;20193;-44
2021/10/05 01:50:39;;;;;;;8.85;2.72;;;19.80;59.20;;;;;;5010628;28;20236;-46
2021/10/05 01:53:11;;;;;;;9.02;3.22;;;19.80;59.30;;;;;;5007952;28;20287;-48
2021/10/05 01:55:41;;;;;;;13.27;3.33;;;19.80;59.40;;;;;;5000790;28;20236;-47
2021/10/05 01:58:12;;;;;;;7.38;2.67;;;19.90;59.40;;;;;;5010639;28;20245;-47
2021/10/05 02:00:42;;;;;;;7.22;2.50;;;19.90;59.30;;;;;;5012185;28;20304;-46
2021/10/05 02:03:14;;;;;;;9.30;2.70;;;19.90;59.20;;;;;;5008306;28;20279;-44
2021/10/05 02:05:44;;;;;;;7.70;2.95;;;19.90;59.50;;;;;;5010281;28;20304;-47
2021/10/05 02:08:17;;;;;;;8.75;2.50;;;20.00;59.60;;;;;;5010238;28;20292;-49
2021/10/05 02:10:47;;;;;;;7.68;2.97;;;20.00;59.50;;;;;;5011260;28;20259;-48
2021/10/05 02:13:18;;;;;;;9.13;3.13;;;20.00;59.40;;;;;;5009225;28;20780;-49
2021/10/05 02:15:48;;;;;;;6.65;2.72;;;20.00;59.30;;;;;;5010231;28;20283;-46
2021/10/05 02:18:18;;;;;;;8.25;3.15;;;20.10;59.20;;;;;;4998881;28;20236;-48
2021/10/05 02:20:50;;;;;;;8.35;2.60;;;20.10;59.20;;;;;;5009835;28;20265;-42
2021/10/05 02:23:22;;;;;;;9.45;3.00;;;20.20;59.20;;;;;;5009999;28;20192;-45
2021/10/05 02:25:52;;;;;;;10.52;3.58;;;20.10;59.10;;;;;;5007691;28;20236;-54
2021/10/05 02:28:23;;;;;;;8.05;2.58;;;20.20;59.10;;;;;;5006934;28;20239;-47
2021/10/05 02:30:54;;;;;;;9.02;3.38;;;20.20;59.10;;;;;;5009305;28;20311;-52
2021/10/05 02:33:24;;;;;;;9.90;3.20;;;20.20;59.00;;;;;;5010505;28;20193;-47
2021/10/05 02:35:55;;;;;;;8.80;3.40;;;20.20;58.90;;;;;;5009689;28;20240;-46
2021/10/05 02:38:27;;;;;;;11.90;3.17;;;20.20;58.90;;;;;;5002660;28;20452;-55
2021/10/05 02:40:57;;;;;;;7.47;3.20;;;20.20;58.80;;;;;;4990866;28;20264;-51
2021/10/05 02:43:28;;;;;;;9.80;2.90;;;20.30;58.80;;;;;;4997678;28;20243;-43
2021/10/05 02:45:58;;;;;;;9.90;3.10;;;20.30;58.80;;;;;;5009921;28;20228;-44
2021/10/05 02:48:28;;;;;;;11.45;3.63;;;20.30;58.70;;;;;;5009283;28;20228;-44
2021/10/05 02:50:59;;;;;;;10.95;3.22;;;20.30;58.70;;;;;;5008706;28;20260;-46
2021/10/05 02:53:31;;;;;;;9.02;3.22;;;20.30;58.60;;;;;;5004977;28;20233;-44
2021/10/05 02:56:02;;;;;;;9.23;3.10;;;20.30;58.50;;;;;;4991730;28;20277;-42
2021/10/05 02:58:32;;;;;;;6.78;2.80;;;20.30;58.50;;;;;;4991408;28;20284;-48
2021/10/05 03:01:02;;;;;;;9.10;2.97;;;20.40;58.50;;;;;;5010998;28;20292;-45
2021/10/05 03:03:33;;;;;;;8.98;2.60;;;20.30;58.40;;;;;;5011160;28;20227;-43
2021/10/05 03:06:03;;;;;;;7.47;3.42;;;20.40;58.50;;;;;;5010464;28;20311;-44
2021/10/05 03:08:36;;;;;;;9.30;3.10;;;20.40;58.50;;;;;;5010274;28;20244;-50
2021/10/05 03:11:07;;;;;;;8.05;3.22;;;20.40;58.40;;;;;;5011159;28;20213;-47
2021/10/05 03:13:37;;;;;;;8.38;2.75;;;20.40;58.40;;;;;;5011093;28;20236;-47
2021/10/05 03:16:08;;;;;;;7.25;2.75;;;20.40;58.40;;;;;;5000387;28;20676;-43
2021/10/05 03:18:41;;;;;;;9.27;3.08;;;20.40;58.30;;;;;;5005632;28;20204;-45
2021/10/05 03:21:11;;;;;;;7.13;2.50;;;20.40;58.30;;;;;;4995106;28;20692;-44
2021/10/05 03:23:44;;;;;;;10.07;3.28;;;20.50;58.40;;;;;;5009480;28;20232;-45
2021/10/05 03:26:14;;;;;;;8.25;2.92;;;20.40;58.30;;;;;;5007404;28;20236;-42
2021/10/05 03:28:44;;;;;;;8.85;3.20;;;20.50;58.20;;;;;;5009914;28;20609;-47
2021/10/05 03:31:15;;;;;;;8.52;2.95;;;20.50;58.20;;;;;;5009934;28;20775;-44
2021/10/05 03:33:46;;;;;;;8.00;2.95;;;20.50;58.20;;;;;;5004905;28;20201;-46
2021/10/05 03:36:16;;;;;;;11.05;3.38;;;20.50;58.10;;;;;;5008932;28;20216;-45
2021/10/05 03:38:49;;;;;;;7.07;2.72;;;20.50;58.10;;;;;;5009535;28;20251;-58
2021/10/05 03:41:19;;;;;;;7.68;2.90;;;20.50;58.10;;;;;;5009892;28;20734;-57
2021/10/05 03:43:50;;;;;;;7.40;2.58;;;20.50;58.10;;;;;;5013465;28;20611;-53
2021/10/05 03:46:20;;;;;;;10.05;3.35;;;20.50;58.10;;;;;;5013232;28;20620;-54
2021/10/05 03:48:50;;;;;;;11.50;3.20;;;20.50;58.00;;;;;;5013100;28;20741;-50
2021/10/05 03:51:21;;;;;;;8.60;3.05;;;20.50;58.00;;;;;;5012218;28;20263;-55
2021/10/05 03:53:53;;;;;;;8.73;2.53;;;20.50;57.90;;;;;;5011416;28;20292;-43
2021/10/05 03:56:23;;;;;;;6.00;2.72;;;20.50;57.80;;;;;;5011820;28;20687;-52
2021/10/05 03:58:54;;;;;;;6.57;2.67;;;20.50;57.70;;;;;;5011470;28;20677;-42
2021/10/05 04:01:24;;;;;;;8.43;3.22;;;20.50;57.70;;;;;;5010221;28;20642;-52
2021/10/05 04:03:55;;;;;;;7.97;2.75;;;20.50;57.60;;;;;;5013752;28;21146;-53
2021/10/05 04:06:25;;;;;;;8.95;2.90;;;20.50;57.60;;;;;;5011142;28;20291;-52
2021/10/05 04:08:57;;;;;;;9.80;3.00;;;20.50;57.60;;;;;;5013709;28;20291;-46
2021/10/05 04:11:28;;;;;;;11.63;3.58;;;20.50;57.70;;;;;;5011201;28;20252;-52
2021/10/05 04:13:58;;;;;;;6.07;2.67;;;20.50;57.60;;;;;;5013383;28;20228;-48
2021/10/05 04:16:29;;;;;;;7.65;2.85;;;20.50;57.60;;;;;;5009641;28;20244;-57
2021/10/05 04:19:00;;;;;;;8.88;3.05;;;20.50;57.50;;;;;;5013451;28;20247;-54
2021/10/05 04:21:30;;;;;;;6.65;2.67;;;20.50;57.50;;;;;;5013019;28;20263;-46
2021/10/05 04:24:02;;;;;;;7.32;2.67;;;20.40;57.50;;;;;;5013528;28;20236;-49
2021/10/05 04:26:33;;;;;;;7.80;2.88;;;20.40;57.60;;;;;;5013358;28;20259;-53
2021/10/05 04:29:03;;;;;;;7.00;2.95;;;20.40;57.70;;;;;;5012558;28;20236;-54
2021/10/05 04:31:36;;;;;;;4.65;2.50;;;20.50;57.80;;;;;;5013520;28;20271;-47
2021/10/05 04:34:06;;;;;;;8.45;2.75;;;20.40;57.70;;;;;;5012807;28;20208;-55
2021/10/05 04:36:37;;;;;;;7.78;3.00;;;20.50;57.70;;;;;;5013799;28;20239;-53
2021/10/05 04:39:09;;;;;;;8.77;3.00;;;20.40;57.60;;;;;;5012391;28;20235;-50
2021/10/05 04:41:40;;;;;;;7.60;2.65;;;20.40;57.50;;;;;;5012915;28;20255;-54
2021/10/05 04:44:11;;;;;;;5.93;2.67;;;20.50;57.50;;;;;;5011126;28;20236;-55
2021/10/05 04:46:42;;;;;;;6.03;2.83;;;20.40;57.40;;;;;;5013533;28;20288;-52
2021/10/05 04:49:12;;;;;;;8.18;3.10;;;20.40;57.50;;;;;;5013457;28;20279;-49
2021/10/05 04:51:42;;;;;;;6.60;2.65;;;20.40;57.40;;;;;;5012841;28;20252;-51
2021/10/05 04:54:15;;;;;;;8.18;3.17;;;20.40;57.40;;;;;;5013327;28;20224;-54
2021/10/05 04:56:45;;;;;;;7.18;2.83;;;20.40;57.50;;;;;;5012898;28;20314;-55
2021/10/05 04:59:16;;;;;;;9.10;3.30;;;20.40;57.60;;;;;;5013325;28;20228;-50
2021/10/05 05:01:46;;;;;;;8.02;3.05;;;20.40;57.60;;;;;;5013444;28;20778;-46
2021/10/05 05:04:17;;;;;;;7.88;2.53;;;20.40;57.60;;;;;;5013562;28;20744;-52
2021/10/05 05:06:48;;;;;;;9.25;3.17;;;20.30;57.50;;;;;;5012462;28;20645;-55
2021/10/05 05:09:20;;;;;;;6.07;2.65;;;20.30;57.40;;;;;;5012768;28;20248;-50
2021/10/05 05:11:51;;;;;;;6.13;2.63;;;20.30;57.40;;;;;;5005401;28;20645;-46
2021/10/05 05:14:21;;;;;;;6.15;2.90;;;20.30;57.40;;;;;;5008364;28;20664;-49
2021/10/05 05:16:51;;;;;;;6.55;3.00;;;20.30;57.40;;;;;;5010254;28;20499;-52
2021/10/05 05:19:22;;;;;;;10.75;3.72;;;20.30;57.30;;;;;;5012002;28;20288;-50
2021/10/05 05:21:53;;;;;;;10.57;4.72;;;20.30;57.30;;;;;;5008872;28;20303;-49
2021/10/05 05:24:25;;;;;;;8.70;3.92;;;20.30;57.30;;;;;;5008936;28;20232;-55
2021/10/05 05:26:56;;;;;;;9.90;4.35;;;20.30;57.30;;;;;;5007394;28;20291;-53
2021/10/05 05:29:26;;;;;;;9.55;4.30;;;20.30;57.40;;;;;;5009871;28;20292;-49
2021/10/05 05:31:58;;;;;;;7.93;3.50;;;20.30;57.40;;;;;;5012638;28;20255;-52
2021/10/05 05:34:28;;;;;;;8.73;4.07;;;20.30;57.40;;;;;;5012460;28;20224;-55
2021/10/05 05:36:58;;;;;;;8.93;4.28;;;20.30;57.40;;;;;;5012246;28;20283;-53
2021/10/05 05:39:31;;;;;;;8.18;4.50;;;20.20;57.20;;;;;;5008489;28;20201;-52
2021/10/05 05:42:01;;;;;;;10.65;4.45;;;20.20;57.90;;;;;;5011121;28;20649;-55
2021/10/05 05:44:31;;;;;;;7.68;4.28;;;20.20;57.30;;;;;;5011682;28;20661;-53
2021/10/05 05:47:02;;;;;;;10.75;4.88;;;20.20;57.30;;;;;;5012061;28;20283;-48
2021/10/05 05:49:32;;;;;;;9.82;4.53;;;20.20;57.30;;;;;;5009544;28;20739;-49
2021/10/05 05:52:03;;;;;;;11.07;4.50;;;20.20;57.40;;;;;;5011782;28;20320;-47
2021/10/05 05:54:35;;;;;;;9.80;4.68;;;20.10;57.30;;;;;;5009878;28;20263;-50
2021/10/05 05:57:05;;;;;;;6.95;4.05;;;20.10;57.50;;;;;;5009370;28;20299;-49
2021/10/05 05:59:36;;;;;;;8.30;4.10;;;20.20;57.50;;;;;;5011358;28;20232;-49
2021/10/05 06:02:06;;;;;;;9.35;4.43;;;20.10;57.60;;;;;;5005624;28;20255;-43
2021/10/05 06:04:37;;;;;;;12.23;4.40;;;20.20;57.60;;;;;;5010893;28;20450;-53
2021/10/05 06:07:07;;;;;;;9.55;4.45;;;20.20;57.50;;;;;;5010713;28;20736;-48
2021/10/05 06:09:40;;;;;;;8.73;4.15;;;20.10;57.50;;;;;;5011840;28;20229;-41
2021/10/05 06:12:15;;;;;;;9.77;4.30;;;20.10;57.50;;;;;;5009331;28;20271;-48
2021/10/05 06:14:46;;;;;;;8.75;4.00;;;20.10;57.40;;;;;;4997147;28;20197;-51
2021/10/05 06:17:16;;;;;;;9.05;3.85;;;20.10;57.40;;;;;;5003689;28;20287;-49
2021/10/05 06:19:46;;;;;;;9.32;4.10;;;20.10;57.40;;;;;;5012606;28;20671;-43
2021/10/05 06:22:17;;;;;;;10.70;4.35;;;20.10;57.40;;;;;;5012175;28;20303;-49
2021/10/05 06:24:50;;;;;;;7.88;3.95;;;20.10;57.40;;;;;;5011877;28;20287;-50
2021/10/05 06:27:20;;;;;;;11.05;4.45;;;20.00;57.40;;;;;;5011943;28;20197;-47
2021/10/05 06:29:51;;;;;;;9.13;4.18;;;20.00;57.30;;;;;;5011870;28;20739;-43
2021/10/05 06:32:21;;;;;;;8.52;3.88;;;20.00;57.40;;;;;;5012685;28;20307;-47
2021/10/05 06:34:51;;;;;;;7.55;3.92;;;20.00;57.30;;;;;;5011799;28;20280;-47
2021/10/05 06:37:22;;;;;;;6.85;3.80;;;20.00;57.30;;;;;;5011712;28;20711;-52
2021/10/05 06:39:54;;;;;;;8.68;3.88;;;20.00;57.30;;;;;;5011391;28;20283;-50
2021/10/05 06:42:24;;;;;;;7.45;4.22;;;20.00;57.40;;;;;;5011195;28;20252;-55
2021/10/05 06:44:55;;;;;;;7.65;4.30;;;20.00;57.50;;;;;;5010680;28;20858;-45
2021/10/05 06:47:25;;;;;;;8.55;4.43;;;20.00;57.60;;;;;;5010571;28;20289;-46
2021/10/05 06:49:56;;;;;;;7.18;3.70;;;20.00;57.60;;;;;;5011116;28;20284;-51
2021/10/05 06:52:26;;;;;;;10.73;4.32;;;19.90;57.50;;;;;;5010977;28;20584;-53
2021/10/05 06:54:58;;;;;;;5.68;3.60;;;19.90;57.40;;;;;;5011510;28;20288;-45
2021/10/05 06:57:29;;;;;;;7.55;4.07;;;19.90;57.50;;;;;;5011546;28;20292;-52
2021/10/05 06:59:59;;;;;;;8.32;3.67;;;19.90;57.40;;;;;;5011566;28;20632;-48
2021/10/05 07:02:29;;;;;;;7.30;3.67;;;19.90;57.40;;;;;;5011224;28;20263;-46
2021/10/05 07:05:00;;;;;;;5.70;3.47;;;19.90;57.40;;;;;;5010808;28;20283;-51
2021/10/05 07:07:30;;;;;;;6.90;3.53;;;19.90;57.40;;;;;;5010973;28;20240;-52
2021/10/05 07:10:02;;;;;;;8.00;4.53;;;19.90;57.40;;;;;;5010072;28;20599;-49
2021/10/05 07:12:33;;;;;;;8.25;3.53;;;19.90;57.40;;;;;;5009263;28;20240;-50
2021/10/05 07:15:03;;;;;;;7.75;3.95;;;19.90;57.50;;;;;;5011186;28;20303;-55
2021/10/05 07:17:34;;;;;;;8.30;3.78;;;19.80;57.40;;;;;;5012996;28;20606;-53
2021/10/05 07:20:04;;;;;;;8.55;3.55;;;19.80;57.50;;;;;;5016091;28;20243;-53
2021/10/05 07:22:35;;;;;;;6.03;3.13;;;19.80;57.50;;;;;;5015216;28;20650;-53
2021/10/05 07:25:07;;;;;;;8.82;3.70;;;19.80;57.50;;;;;;5015064;28;20287;-49
2021/10/05 07:27:38;;;;;;;6.97;3.22;;;19.80;57.50;;;;;;5015017;28;20280;-46
2021/10/05 07:30:09;;;;;;;5.97;3.35;;;19.80;57.50;;;;;;5014934;28;20629;-49
2021/10/05 07:32:39;;;;;;;5.53;3.38;;;19.70;57.40;;;;;;5015220;28;20248;-44
2021/10/05 07:35:10;;;;;;;7.72;3.05;;;19.70;57.40;;;;;;5015035;28;20608;-45
2021/10/05 07:37:40;;;;;;;7.10;3.60;;;19.70;57.40;;;;;;5015349;28;20232;-48
2021/10/05 07:40:15;;;;;;;5.68;3.05;;;19.70;57.40;;;;;;5008000;28;20566;-47
2021/10/05 07:42:46;;;;;;;7.53;3.42;;;19.70;57.30;;;;;;4995610;28;20221;-48
2021/10/05 07:45:16;;;;;;;6.20;3.63;;;19.70;57.30;;;;;;5013953;28;20275;-46
2021/10/05 07:47:47;;;;;;;5.72;3.05;;;19.70;57.30;;;;;;5010219;28;20296;-43
2021/10/05 07:50:17;;;;;;;5.45;3.28;;;19.60;57.30;;;;;;5013541;28;20356;-45
2021/10/05 07:52:47;;;;;;;6.95;3.17;;;19.70;57.40;;;;;;5013630;28;20252;-49
2021/10/05 07:55:20;;;;;;;7.05;3.55;;;19.70;57.30;;;;;;5013119;28;20280;-51
2021/10/05 07:57:50;;;;;;;6.78;3.47;;;19.60;57.30;;;;;;5013868;28;20676;-51
2021/10/05 08:00:21;;;;;;;5.43;2.90;;;19.60;57.30;;;;;;5012322;28;20200;-50
2021/10/05 08:02:51;;;;;;;7.90;3.55;;;19.60;57.40;;;;;;5013775;28;20256;-45
2021/10/05 08:05:22;;;;;;;6.93;3.50;;;19.60;57.30;;;;;;5012073;28;20197;-45
2021/10/05 08:07:59;;;;;;;6.60;3.70;;;19.60;57.30;;;;;;5013734;28;20215;-45
2021/10/05 08:10:32;;;;;;;5.05;2.90;;;19.60;57.40;;;;;;4996686;28;20724;-49
2021/10/05 08:13:02;;;;;;;5.95;2.97;;;19.60;57.30;;;;;;5013750;28;20200;-49
2021/10/05 08:15:33;;;;;;;6.25;3.10;;;19.50;57.30;;;;;;5011625;28;20231;-47
2021/10/05 08:18:04;;;;;;;6.22;2.72;;;19.50;57.30;;;;;;5011488;28;20208;-49
2021/10/05 08:20:34;;;;;;;5.18;3.00;;;19.50;57.30;;;;;;5012962;28;20193;-47
2021/10/05 08:23:05;;;;;;;5.43;3.28;;;19.50;57.50;;;;;;5013223;28;20203;-47
2021/10/05 08:25:37;;;;;;;7.53;3.60;;;19.50;57.30;;;;;;5011994;28;20287;-45
2021/10/05 08:28:08;;;;;;;6.43;3.28;;;19.50;57.30;;;;;;5010701;28;20288;-47
2021/10/05 08:30:38;;;;;;;4.50;3.03;;;19.50;57.30;;;;;;5010942;28;20233;-41
2021/10/05 08:33:09;;;;;;;5.35;3.33;;;19.40;57.20;;;;;;5011702;28;20196;-46
2021/10/05 08:35:39;;;;;;;5.22;3.13;;;19.50;57.40;;;;;;5012796;28;20224;-43
2021/10/05 08:38:10;;;;;;;5.32;4.03;;;19.40;57.20;;;;;;5013616;28;20676;-52
2021/10/05 08:40:42;;;;;;;6.75;3.80;;;19.40;57.20;;;;;;5009229;28;20240;-46
2021/10/05 08:43:12;;;;;;;6.05;3.78;;;19.40;57.30;;;;;;5012117;28;20236;-45
2021/10/05 08:45:43;;;;;;;7.00;4.03;;;19.40;57.30;;;;;;5005683;28;20280;-46
2021/10/05 08:48:13;;;;;;;8.20;3.97;;;19.40;57.30;;;;;;5013099;28;20296;-41
2021/10/05 08:50:44;;;;;;;6.53;3.90;;;19.40;57.30;;;;;;5010514;28;20228;-41
2021/10/05 08:53:14;;;;;;;7.25;4.22;;;19.40;57.30;;;;;;5013492;28;20308;-41
2021/10/05 08:55:48;;;;;;;8.80;4.13;;;19.30;57.90;;;;;;5011162;28;20523;-42
2021/10/05 08:58:18;;;;;;;6.43;3.95;;;19.40;57.30;;;;;;5008887;28;20201;-45
2021/10/05 09:00:49;;;;;;;6.07;3.70;;;19.30;57.30;;;;;;4995332;28;20232;-42
2021/10/05 09:03:24;;;;;;;6.20;3.90;;;19.30;57.20;;;;;;5009307;28;20244;-40
2021/10/05 09:05:55;;;;;;;6.55;3.72;;;19.30;57.30;;;;;;5012554;28;20713;-42
2021/10/05 09:08:28;;;;;;;6.47;3.88;;;19.30;57.30;;;;;;5011322;28;20661;-49
2021/10/05 09:11:06;;;;;;;5.28;3.67;;;19.30;57.30;;;;;;5009084;28;20555;-44
2021/10/05 09:13:38;;;;;;;6.22;3.70;;;19.30;57.30;;;;;;5009547;28;20358;-48
2021/10/05 09:16:19;;;;;;;6.30;3.42;;;19.30;57.20;;;;;;5011996;28;20189;-47
2021/10/05 09:18:57;;;;;;;4.82;3.47;;;19.20;57.10;;;;;;5010576;28;20711;-47
2021/10/05 09:21:28;;;;;;;5.55;3.35;;;19.30;57.20;;;;;;5013084;28;20643;-44
2021/10/05 09:23:59;;;;;;;5.63;3.92;;;19.20;57.10;;;;;;5012515;28;20695;-40
2021/10/05 09:26:43;;;;;;;4.65;3.35;;;19.20;57.10;;;;;;5012217;28;20312;-40
2021/10/05 09:29:20;;;;;;;4.53;3.28;;;19.20;57.20;;;;;;5010516;28;20228;-42
2021/10/05 09:31:59;;;;;;;5.68;3.50;;;19.20;57.20;;;;;;5012868;28;20291;-43
2021/10/05 09:34:50;;;;;;;5.32;3.75;;;19.20;57.20;;;;;;5012772;28;20232;-42
2021/10/05 09:37:20;;;;;;;6.28;3.78;;;19.20;57.20;;;;;;5012795;28;20200;-43
2021/10/05 09:39:51;;;;;;;5.38;3.72;;;19.20;57.20;;;;;;5011573;28;20232;-42
2021/10/05 09:42:26;;;;;;;7.20;4.10;;;19.20;57.20;;;;;;5001088;28;20641;-41
2021/10/05 09:45:00;;;;;;;6.18;4.18;;;19.10;57.20;;;;;;4992867;28;20232;-43
2021/10/05 09:47:37;;;;;;;5.32;3.90;;;19.10;57.20;;;;;;5006360;28;20271;-44
2021/10/05 09:50:14;;;;;;;5.38;3.95;;;19.10;57.20;;;;;;5012362;28;20287;-46
2021/10/05 09:52:46;;;;;;;6.70;3.95;;;19.10;57.20;;;;;;5012038;28;20350;-43
2021/10/05 09:55:16;;;;;;;4.10;3.30;;;19.10;57.20;;;;;;5011966;28;20197;-47
2021/10/05 09:57:49;;;;;;;5.93;3.85;;;19.10;57.20;;;;;;5012523;28;20236;-51
2021/10/05 10:00:19;;;;;;;6.65;4.32;;;19.10;57.20;;;;;;5012604;28;20783;-54
2021/10/05 10:02:50;;;;;;;6.28;3.80;;;19.10;57.20;;;;;;5011827;28;20256;-51
2021/10/05 10:05:21;;;;;;;6.50;3.45;;;19.10;57.10;;;;;;5011679;28;20477;-46
2021/10/05 10:07:51;;;;;;;5.63;3.28;;;19.10;57.20;;;;;;5011869;28;20315;-49
2021/10/05 10:10:22;;;;;;;5.60;3.80;;;19.10;57.20;;;;;;5011718;28;20251;-54
2021/10/05 10:12:54;;;;;;;6.20;4.03;;;19.10;57.20;;;;;;5011695;28;20252;-44
2021/10/05 10:15:26;;;;;;;6.75;3.30;;;19.00;57.20;;;;;;5012765;28;20228;-54
2021/10/05 10:18:07;;;;;;;6.72;3.58;;;19.00;57.20;;;;;;5012166;28;20244;-47
2021/10/05 10:20:38;;;;;;;5.97;3.67;;;19.00;57.20;;;;;;5011197;28;20189;-51
2021/10/05 10:23:20;;;;;;;4.53;3.05;;;19.00;57.20;;;;;;5008436;28;20216;-45
2021/10/05 10:25:57;;;;;;;5.55;3.80;;;19.00;57.20;;;;;;5008737;28;20192;-46
2021/10/05 10:28:30;;;;;;;5.25;3.08;;;19.00;57.20;;;;;;5008163;28;20243;-46
2021/10/05 10:31:02;;;;;;;6.15;3.58;;;19.00;57.20;;;;;;5011160;28;20303;-50
2021/10/05 10:33:44;;;;;;;4.20;3.17;;;19.00;57.20;;;;;;5009519;28;20279;-52
2021/10/05 10:36:14;;;;;;;5.50;3.45;;;19.00;57.20;;;;;;5009046;28;20217;-51
2021/10/05 10:38:45;;;;;;;4.65;3.20;;;19.00;57.20;;;;;;5010546;28;20279;-47
2021/10/05 10:41:17;;;;;;;5.97;3.60;;;19.00;57.10;;;;;;5010248;28;20209;-48
2021/10/05 10:44:00;;;;;;;5.05;3.35;;;19.00;57.10;;;;;;5008572;28;20224;-47
2021/10/05 10:46:32;;;;;;;5.13;3.50;;;19.00;57.10;;;;;;5011436;28;20234;-49
2021/10/05 10:49:03;;;;;;;4.28;3.05;;;19.00;57.10;;;;;;5011513;28;20287;-55
2021/10/05 10:51:36;;;;;;;4.63;3.40;;;19.00;57.10;;;;;;5011154;28;20247;-47
2021/10/05 10:54:14;;;;;;;5.60;3.65;;;18.90;57.10;;;;;;5011833;28;20220;-51
2021/10/05 10:56:45;;;;;;;4.63;3.20;;;18.90;57.10;;;;;;5010783;28;20215;-53
2021/10/05 10:59:17;;;;;;;5.35;3.20;;;18.90;57.10;;;;;;5011276;28;20296;-50
2021/10/05 11:01:48;;;;;;;5.38;3.25;;;18.90;57.10;;;;;;5011467;28;20263;-45
2021/10/05 11:04:19;;;;;;;4.28;3.30;;;18.90;57.10;;;;;;5011195;28;20614;-46
2021/10/05 11:06:50;;;;;;;5.35;3.42;;;18.90;57.10;;;;;;5010833;28;20456;-49
2021/10/05 11:09:20;;;;;;;4.63;3.17;;;18.90;57.10;;;;;;5011328;28;20236;-48
2021/10/05 11:11:57;;;;;;;5.13;3.25;;;18.90;57.10;;;;;;5010853;28;20676;-56
2021/10/05 11:14:30;;;;;;;4.93;2.88;;;18.90;57.20;;;;;;5011058;28;20228;-55
2021/10/05 11:17:01;;;;;;;5.72;3.10;;;18.90;57.10;;;;;;5010682;28;20228;-45
2021/10/05 11:19:32;;;;;;;5.70;3.55;;;18.90;57.10;;;;;;5010329;28;20275;-51
2021/10/05 11:22:03;;;;;;;5.07;3.38;;;18.90;57.10;;;;;;4991107;28;20313;-49
2021/10/05 11:24:40;;;;;;;5.72;3.17;;;18.90;57.10;;;;;;4991677;28;20202;-49
2021/10/05 11:27:12;;;;;;;4.68;3.10;;;18.90;57.10;;;;;;4991502;28;20225;-54
2021/10/05 11:29:44;;;;;;;5.22;3.35;;;18.90;57.00;;;;;;4991208;28;20232;-49
2021/10/05 11:32:15;;;;;;;3.28;2.92;;;18.80;57.00;;;;;;4991400;28;20253;-40
2021/10/05 11:34:45;;;;;;;4.18;2.72;;;18.80;57.10;;;;;;4990894;28;20236;-52
2021/10/05 11:37:16;;;;;;;3.78;2.70;;;18.80;57.10;;;;;;4990971;28;20229;-49
2021/10/05 11:39:47;;;;;;;5.20;3.00;;;18.80;57.10;;;;;;4991447;28;20202;-43
2021/10/05 11:42:19;;;;;;;4.55;3.20;;;18.80;57.70;;;;;;4991263;28;20480;-49
2021/10/05 11:44:52;;;;;;;5.05;3.15;;;18.80;57.10;;;;;;4991040;28;20239;-55
2021/10/05 11:47:23;;;;;;;5.07;3.00;;;18.80;57.10;;;;;;5003312;28;20271;-44
2021/10/05 11:49:54;;;;;;;4.95;3.45;;;18.80;57.10;;;;;;5011052;28;20201;-51
2021/10/05 11:52:24;;;;;;;4.60;2.92;;;18.80;57.10;;;;;;5010909;28;20221;-46
2021/10/05 11:54:55;;;;;;;4.68;3.22;;;18.80;57.10;;;;;;5010880;28;20271;-42
2021/10/05 11:57:26;;;;;;;4.28;2.80;;;18.80;57.60;;;;;;5010939;28;20240;-43
2021/10/05 12:00:00;;;;;;;5.25;3.05;;;18.80;57.10;;;;;;5010902;28;20197;-43
2021/10/05 12:02:32;;;;;;;5.25;2.92;;;18.80;57.10;;;;;;5010968;28;20219;-46
2021/10/05 12:05:03;;;;;;;3.70;2.80;;;18.70;57.00;;;;;;5014650;28;20200;-45
2021/10/05 12:07:34;;;;;;;5.50;2.90;;;18.80;57.00;;;;;;5014425;28;20594;-44
2021/10/05 12:10:06;;;;;;;5.28;2.70;;;18.80;57.00;;;;;;5014477;28;20201;-49
2021/10/05 12:12:36;;;;;;;3.45;2.58;;;18.70;56.90;;;;;;5014424;28;20776;-48
2021/10/05 12:15:10;;;;;;;4.18;2.97;;;18.70;57.00;;;;;;5014145;28;20232;-53
2021/10/05 12:17:41;;;;;;;5.18;3.03;;;18.70;57.00;;;;;;5014204;28;20244;-54
2021/10/05 12:20:13;;;;;;;4.68;2.53;;;18.70;57.00;;;;;;5014201;28;20228;-50
2021/10/05 12:22:47;;;;;;;4.95;2.97;;;18.70;57.00;;;;;;5014433;28;20252;-49
2021/10/05 12:25:17;;;;;;;3.42;2.60;;;18.70;57.00;;;;;;5013995;28;20201;-54
2021/10/05 12:27:48;;;;;;;7.03;3.25;;;18.70;57.00;;;;;;5013877;28;20748;-42
2021/10/05 12:30:21;;;;;;;4.90;2.85;;;18.60;57.00;;;;;;5014030;28;20635;-51
2021/10/05 12:32:51;;;;;;;5.13;2.72;;;18.60;57.00;;;;;;5014309;28;20252;-43
2021/10/05 12:35:29;;;;;;;5.57;3.08;;;18.60;57.00;;;;;;5013903;28;20240;-45
2021/10/05 12:38:02;;;;;;;5.15;3.00;;;18.60;57.00;;;;;;5013594;28;20622;-47
2021/10/05 12:40:47;;;;;;;4.40;2.72;;;18.60;57.00;;;;;;5013374;28;20232;-44
2021/10/05 12:43:18;;;;;;;3.38;2.40;;;18.60;57.00;;;;;;5012035;28;20193;-45
2021/10/05 12:45:55;;;;;;;4.47;2.78;;;18.60;57.60;;;;;;5013756;28;20288;-41
2021/10/05 12:48:34;;;;;;;5.38;2.97;;;18.60;57.00;;;;;;4994011;28;20225;-50
2021/10/05 12:51:06;;;;;;;4.53;2.85;;;18.60;56.90;;;;;;4994096;28;20243;-52
2021/10/05 12:53:36;;;;;;;3.70;2.67;;;18.60;56.90;;;;;;5008189;28;20229;-46
2021/10/05 12:56:07;;;;;;;3.63;2.50;;;18.60;57.00;;;;;;5013664;28;20322;-44
2021/10/05 12:58:39;;;;;;;3.95;2.80;;;18.60;57.00;;;;;;5013527;28;20240;-43
2021/10/05 13:01:11;;;;;;;4.82;2.70;;;18.60;57.00;;;;;;5013692;28;20248;-42
2021/10/05 13:03:41;;;;;;;4.47;2.80;;;18.60;57.00;;;;;;5013450;28;20239;-45
2021/10/05 13:06:12;;;;;;;5.97;2.78;;;18.60;57.00;;;;;;5013111;28;20236;-44
2021/10/05 13:08:45;;;;;;;5.13;2.90;;;18.50;56.90;;;;;;5010668;28;20256;-46